sensor_id;sensor_type;location;lat;lon;timestamp;P1;durP1;ratioP1;P2;durP2;ratioP2
10126;SDS011;13080;42.608;23.362;2023-02-28T00:00:53;18.70;;;10.32;;
10126;SDS011;13080;42.608;23.362;2023-02-28T00:03:20;21.45;;;11.73;;
10126;SDS011;13080;42.608;23.362;2023-02-28T00:05:47;19.00;;;9.80;;
10126;SDS011;13080;42.608;23.362;2023-02-28T00:08:14;19.80;;;9.35;;
10126;SDS011;13080;42.608;23.362;2023-02-28T00:10:40;18.60;;;10.45;;
10126;SDS011;13080;42.608;23.362;2023-02-28T00:13:07;23.23;;;10.32;;
10126;SDS011;13080;42.608;23.362;2023-02-28T00:15:35;17.40;;;9.35;;
10126;SDS011;13080;42.608;23.362;2023-02-28T00:18:02;18.90;;;9.73;;
10126;SDS011;13080;42.608;23.362;2023-02-28T00:20:29;17.00;;;8.38;;
10126;SDS011;13080;42.608;23.362;2023-02-28T00:22:56;19.63;;;8.75;;
10126;SDS011;13080;42.608;23.362;2023-02-28T00:25:23;21.83;;;9.02;;
10126;SDS011;13080;42.608;23.362;2023-02-28T00:27:51;15.68;;;8.50;;
10126;SDS011;13080;42.608;23.362;2023-02-28T00:30:18;16.42;;;7.97;;
10126;SDS011;13080;42.608;23.362;2023-02-28T00:32:47;20.02;;;8.65;;
10126;SDS011;13080;42.608;23.362;2023-02-28T00:35:15;18.70;;;8.48;;
10126;SDS011;13080;42.608;23.362;2023-02-28T00:37:42;18.05;;;9.57;;
10126;SDS011;13080;42.608;23.362;2023-02-28T00:40:09;17.65;;;8.88;;
10126;SDS011;13080;42.608;23.362;2023-02-28T00:42:37;16.50;;;9.00;;
10126;SDS011;13080;42.608;23.362;2023-02-28T00:45:04;17.35;;;8.85;;
10126;SDS011;13080;42.608;23.362;2023-02-28T00:47:32;17.52;;;10.07;;
10126;SDS011;13080;42.608;23.362;2023-02-28T00:50:00;23.55;;;9.82;;
10126;SDS011;13080;42.608;23.362;2023-02-28T00:52:27;19.27;;;9.07;;
10126;SDS011;13080;42.608;23.362;2023-02-28T00:54:54;18.23;;;10.20;;
10126;SDS011;13080;42.608;23.362;2023-02-28T00:57:21;20.73;;;9.30;;
10126;SDS011;13080;42.608;23.362;2023-02-28T00:59:48;21.77;;;9.88;;
10126;SDS011;13080;42.608;23.362;2023-02-28T01:02:15;16.90;;;9.98;;
10126;SDS011;13080;42.608;23.362;2023-02-28T01:04:43;23.98;;;12.52;;
10126;SDS011;13080;42.608;23.362;2023-02-28T01:07:11;31.75;;;19.80;;
10126;SDS011;13080;42.608;23.362;2023-02-28T01:09:39;23.98;;;12.73;;
10126;SDS011;13080;42.608;23.362;2023-02-28T01:12:06;28.58;;;12.65;;
10126;SDS011;13080;42.608;23.362;2023-02-28T01:14:34;18.98;;;9.35;;
10126;SDS011;13080;42.608;23.362;2023-02-28T01:17:01;19.88;;;9.77;;
10126;SDS011;13080;42.608;23.362;2023-02-28T01:19:28;17.45;;;9.70;;
10126;SDS011;13080;42.608;23.362;2023-02-28T01:21:54;16.15;;;8.75;;
10126;SDS011;13080;42.608;23.362;2023-02-28T01:24:23;16.98;;;8.10;;
10126;SDS011;13080;42.608;23.362;2023-02-28T01:26:49;17.00;;;8.43;;
10126;SDS011;13080;42.608;23.362;2023-02-28T01:29:16;17.58;;;7.65;;
10126;SDS011;13080;42.608;23.362;2023-02-28T01:31:43;15.15;;;7.65;;
10126;SDS011;13080;42.608;23.362;2023-02-28T01:34:09;13.18;;;7.88;;
10126;SDS011;13080;42.608;23.362;2023-02-28T01:36:36;15.32;;;9.35;;
10126;SDS011;13080;42.608;23.362;2023-02-28T01:39:03;18.33;;;10.15;;
10126;SDS011;13080;42.608;23.362;2023-02-28T01:41:32;13.45;;;8.38;;
10126;SDS011;13080;42.608;23.362;2023-02-28T01:44:01;14.77;;;7.82;;
10126;SDS011;13080;42.608;23.362;2023-02-28T01:46:30;16.83;;;8.95;;
10126;SDS011;13080;42.608;23.362;2023-02-28T01:49:00;97.60;;;11.82;;
10126;SDS011;13080;42.608;23.362;2023-02-28T01:51:32;232.20;;;17.75;;
10126;SDS011;13080;42.608;23.362;2023-02-28T01:54:02;66.22;;;11.25;;
10126;SDS011;13080;42.608;23.362;2023-02-28T01:56:34;133.35;;;13.70;;
10126;SDS011;13080;42.608;23.362;2023-02-28T01:59:02;44.55;;;10.48;;
10126;SDS011;13080;42.608;23.362;2023-02-28T02:01:29;69.80;;;11.93;;
10126;SDS011;13080;42.608;23.362;2023-02-28T02:03:57;60.33;;;11.93;;
10126;SDS011;13080;42.608;23.362;2023-02-28T02:06:29;23.08;;;9.93;;
10126;SDS011;13080;42.608;23.362;2023-02-28T02:08:59;59.97;;;10.45;;
10126;SDS011;13080;42.608;23.362;2023-02-28T02:11:26;72.10;;;10.73;;
10126;SDS011;13080;42.608;23.362;2023-02-28T02:14:03;18.25;;;8.98;;
10126;SDS011;13080;42.608;23.362;2023-02-28T02:16:42;36.28;;;8.75;;
10126;SDS011;13080;42.608;23.362;2023-02-28T02:19:37;19.52;;;8.65;;
10126;SDS011;13080;42.608;23.362;2023-02-28T02:25:26;13.60;;;7.10;;
10126;SDS011;13080;42.608;23.362;2023-02-28T02:27:59;13.75;;;7.13;;
10126;SDS011;13080;42.608;23.362;2023-02-28T02:30:54;14.75;;;7.22;;
10126;SDS011;13080;42.608;23.362;2023-02-28T02:36:48;17.15;;;8.45;;
10126;SDS011;13080;42.608;23.362;2023-02-28T02:39:19;39.03;;;9.82;;
10126;SDS011;13080;42.608;23.362;2023-02-28T02:41:58;18.02;;;7.63;;
10126;SDS011;13080;42.608;23.362;2023-02-28T02:44:28;20.33;;;8.68;;
10126;SDS011;13080;42.608;23.362;2023-02-28T02:47:01;14.73;;;7.97;;
10126;SDS011;13080;42.608;23.362;2023-02-28T02:49:35;17.17;;;8.43;;
10126;SDS011;13080;42.608;23.362;2023-02-28T02:52:06;14.40;;;7.00;;
10126;SDS011;13080;42.608;23.362;2023-02-28T02:54:35;15.15;;;6.90;;
10126;SDS011;13080;42.608;23.362;2023-02-28T02:57:05;11.50;;;6.45;;
10126;SDS011;13080;42.608;23.362;2023-02-28T02:59:35;12.85;;;6.60;;
10126;SDS011;13080;42.608;23.362;2023-02-28T03:02:06;13.63;;;5.85;;
10126;SDS011;13080;42.608;23.362;2023-02-28T03:04:36;11.15;;;5.95;;
10126;SDS011;13080;42.608;23.362;2023-02-28T03:07:10;11.48;;;5.68;;
10126;SDS011;13080;42.608;23.362;2023-02-28T03:09:36;11.32;;;5.47;;
10126;SDS011;13080;42.608;23.362;2023-02-28T03:12:04;13.63;;;5.28;;
10126;SDS011;13080;42.608;23.362;2023-02-28T03:14:40;19.80;;;8.43;;
10126;SDS011;13080;42.608;23.362;2023-02-28T03:17:20;16.17;;;7.90;;
10126;SDS011;13080;42.608;23.362;2023-02-28T03:20:01;12.35;;;6.05;;
10126;SDS011;13080;42.608;23.362;2023-02-28T03:22:45;17.25;;;7.55;;
10126;SDS011;13080;42.608;23.362;2023-02-28T03:25:19;20.65;;;8.57;;
10126;SDS011;13080;42.608;23.362;2023-02-28T03:27:55;21.42;;;8.88;;
10126;SDS011;13080;42.608;23.362;2023-02-28T03:30:31;30.10;;;8.80;;
10126;SDS011;13080;42.608;23.362;2023-02-28T03:33:03;24.33;;;9.27;;
10126;SDS011;13080;42.608;23.362;2023-02-28T03:35:39;18.67;;;8.77;;
10126;SDS011;13080;42.608;23.362;2023-02-28T03:38:12;18.63;;;8.00;;
10126;SDS011;13080;42.608;23.362;2023-02-28T03:40:46;26.23;;;9.02;;
10126;SDS011;13080;42.608;23.362;2023-02-28T03:43:17;30.83;;;8.85;;
10126;SDS011;13080;42.608;23.362;2023-02-28T03:45:48;25.02;;;9.15;;
10126;SDS011;13080;42.608;23.362;2023-02-28T03:48:19;34.25;;;8.07;;
10126;SDS011;13080;42.608;23.362;2023-02-28T03:50:51;18.08;;;8.13;;
10126;SDS011;13080;42.608;23.362;2023-02-28T03:53:25;19.98;;;9.02;;
10126;SDS011;13080;42.608;23.362;2023-02-28T03:55:54;15.20;;;7.47;;
10126;SDS011;13080;42.608;23.362;2023-02-28T03:58:26;28.45;;;9.10;;
10126;SDS011;13080;42.608;23.362;2023-02-28T04:00:58;28.13;;;9.02;;
10126;SDS011;13080;42.608;23.362;2023-02-28T04:03:33;53.50;;;8.90;;
10126;SDS011;13080;42.608;23.362;2023-02-28T04:06:01;36.33;;;8.48;;
10126;SDS011;13080;42.608;23.362;2023-02-28T04:08:31;89.38;;;11.70;;
10126;SDS011;13080;42.608;23.362;2023-02-28T04:10:59;22.42;;;8.40;;
10126;SDS011;13080;42.608;23.362;2023-02-28T04:13:31;18.85;;;7.60;;
10126;SDS011;13080;42.608;23.362;2023-02-28T04:15:57;18.00;;;7.80;;
10126;SDS011;13080;42.608;23.362;2023-02-28T04:18:24;13.57;;;6.70;;
10126;SDS011;13080;42.608;23.362;2023-02-28T04:20:51;12.27;;;5.45;;
10126;SDS011;13080;42.608;23.362;2023-02-28T04:23:18;16.83;;;4.95;;
10126;SDS011;13080;42.608;23.362;2023-02-28T04:25:46;13.15;;;5.13;;
10126;SDS011;13080;42.608;23.362;2023-02-28T04:28:12;22.95;;;6.63;;
10126;SDS011;13080;42.608;23.362;2023-02-28T04:30:39;36.80;;;7.13;;
10126;SDS011;13080;42.608;23.362;2023-02-28T04:33:06;39.05;;;8.27;;
10126;SDS011;13080;42.608;23.362;2023-02-28T04:35:32;78.18;;;10.00;;
10126;SDS011;13080;42.608;23.362;2023-02-28T04:37:59;37.10;;;7.20;;
10126;SDS011;13080;42.608;23.362;2023-02-28T04:40:26;28.35;;;7.10;;
10126;SDS011;13080;42.608;23.362;2023-02-28T04:42:54;36.70;;;7.25;;
10126;SDS011;13080;42.608;23.362;2023-02-28T04:45:21;30.65;;;8.48;;
10126;SDS011;13080;42.608;23.362;2023-02-28T04:47:47;23.52;;;6.88;;
10126;SDS011;13080;42.608;23.362;2023-02-28T04:50:14;26.50;;;7.53;;
10126;SDS011;13080;42.608;23.362;2023-02-28T04:52:41;40.17;;;8.90;;
10126;SDS011;13080;42.608;23.362;2023-02-28T04:55:08;36.65;;;8.60;;
10126;SDS011;13080;42.608;23.362;2023-02-28T04:57:35;86.75;;;15.10;;
10126;SDS011;13080;42.608;23.362;2023-02-28T05:00:04;101.60;;;13.48;;
10126;SDS011;13080;42.608;23.362;2023-02-28T05:02:36;118.97;;;32.95;;
10126;SDS011;13080;42.608;23.362;2023-02-28T05:05:03;254.70;;;115.22;;
10126;SDS011;13080;42.608;23.362;2023-02-28T05:07:30;76.78;;;19.83;;
10126;SDS011;13080;42.608;23.362;2023-02-28T05:09:57;94.95;;;11.07;;
10126;SDS011;13080;42.608;23.362;2023-02-28T05:12:24;83.53;;;10.95;;
10126;SDS011;13080;42.608;23.362;2023-02-28T05:14:50;42.30;;;12.55;;
10126;SDS011;13080;42.608;23.362;2023-02-28T05:17:19;48.88;;;9.30;;
10126;SDS011;13080;42.608;23.362;2023-02-28T05:19:45;48.47;;;9.18;;
10126;SDS011;13080;42.608;23.362;2023-02-28T05:22:13;112.25;;;13.32;;
10126;SDS011;13080;42.608;23.362;2023-02-28T05:24:41;76.97;;;10.95;;
10126;SDS011;13080;42.608;23.362;2023-02-28T05:27:07;134.88;;;15.40;;
10126;SDS011;13080;42.608;23.362;2023-02-28T05:29:35;111.72;;;13.77;;
10126;SDS011;13080;42.608;23.362;2023-02-28T05:32:06;112.50;;;13.85;;
10126;SDS011;13080;42.608;23.362;2023-02-28T05:34:36;78.63;;;10.60;;
10126;SDS011;13080;42.608;23.362;2023-02-28T05:37:03;79.32;;;13.98;;
10126;SDS011;13080;42.608;23.362;2023-02-28T05:39:30;34.53;;;11.48;;
10126;SDS011;13080;42.608;23.362;2023-02-28T05:41:56;103.40;;;13.02;;
10126;SDS011;13080;42.608;23.362;2023-02-28T05:44:23;104.43;;;12.32;;
10126;SDS011;13080;42.608;23.362;2023-02-28T05:46:50;37.85;;;10.07;;
10126;SDS011;13080;42.608;23.362;2023-02-28T05:49:17;45.50;;;11.75;;
10126;SDS011;13080;42.608;23.362;2023-02-28T05:51:45;18.02;;;8.98;;
10126;SDS011;13080;42.608;23.362;2023-02-28T05:54:12;18.92;;;9.38;;
10126;SDS011;13080;42.608;23.362;2023-02-28T05:56:38;24.95;;;10.07;;
10126;SDS011;13080;42.608;23.362;2023-02-28T05:59:08;15.60;;;7.70;;
10126;SDS011;13080;42.608;23.362;2023-02-28T06:01:36;26.55;;;14.80;;
10126;SDS011;13080;42.608;23.362;2023-02-28T06:04:06;16.65;;;9.07;;
10126;SDS011;13080;42.608;23.362;2023-02-28T06:06:36;12.63;;;6.70;;
10126;SDS011;13080;42.608;23.362;2023-02-28T06:09:05;14.05;;;6.75;;
10126;SDS011;13080;42.608;23.362;2023-02-28T06:11:32;10.63;;;5.88;;
10126;SDS011;13080;42.608;23.362;2023-02-28T06:14:00;13.45;;;6.57;;
10126;SDS011;13080;42.608;23.362;2023-02-28T06:16:27;12.05;;;6.35;;
10126;SDS011;13080;42.608;23.362;2023-02-28T06:18:57;17.73;;;8.02;;
10126;SDS011;13080;42.608;23.362;2023-02-28T06:21:24;19.48;;;8.82;;
10126;SDS011;13080;42.608;23.362;2023-02-28T06:23:52;25.70;;;12.25;;
10126;SDS011;13080;42.608;23.362;2023-02-28T06:26:20;24.33;;;10.85;;
10126;SDS011;13080;42.608;23.362;2023-02-28T06:28:47;20.10;;;9.63;;
10126;SDS011;13080;42.608;23.362;2023-02-28T06:31:15;16.02;;;7.90;;
10126;SDS011;13080;42.608;23.362;2023-02-28T06:33:43;19.13;;;8.13;;
10126;SDS011;13080;42.608;23.362;2023-02-28T06:36:11;15.23;;;7.95;;
10126;SDS011;13080;42.608;23.362;2023-02-28T06:38:39;19.98;;;7.70;;
10126;SDS011;13080;42.608;23.362;2023-02-28T06:41:07;22.23;;;9.40;;
10126;SDS011;13080;42.608;23.362;2023-02-28T06:43:36;22.15;;;10.10;;
10126;SDS011;13080;42.608;23.362;2023-02-28T06:46:05;19.00;;;7.78;;
10126;SDS011;13080;42.608;23.362;2023-02-28T06:48:33;16.77;;;7.35;;
10126;SDS011;13080;42.608;23.362;2023-02-28T06:51:01;16.90;;;7.82;;
10126;SDS011;13080;42.608;23.362;2023-02-28T06:53:29;17.65;;;7.88;;
10126;SDS011;13080;42.608;23.362;2023-02-28T06:55:56;21.67;;;8.77;;
10126;SDS011;13080;42.608;23.362;2023-02-28T06:58:22;17.10;;;8.10;;
10126;SDS011;13080;42.608;23.362;2023-02-28T07:00:51;13.55;;;7.43;;
10126;SDS011;13080;42.608;23.362;2023-02-28T07:03:18;14.10;;;6.82;;
10126;SDS011;13080;42.608;23.362;2023-02-28T07:05:45;12.05;;;6.18;;
10126;SDS011;13080;42.608;23.362;2023-02-28T07:08:12;13.25;;;5.68;;
10126;SDS011;13080;42.608;23.362;2023-02-28T07:10:39;15.50;;;6.78;;
10126;SDS011;13080;42.608;23.362;2023-02-28T07:13:06;16.33;;;6.20;;
10126;SDS011;13080;42.608;23.362;2023-02-28T07:15:34;11.63;;;6.30;;
10126;SDS011;13080;42.608;23.362;2023-02-28T07:18:03;15.02;;;5.88;;
10126;SDS011;13080;42.608;23.362;2023-02-28T07:20:30;17.90;;;8.43;;
10126;SDS011;13080;42.608;23.362;2023-02-28T07:22:56;17.60;;;8.18;;
10126;SDS011;13080;42.608;23.362;2023-02-28T07:25:24;15.70;;;8.38;;
10126;SDS011;13080;42.608;23.362;2023-02-28T07:27:52;23.38;;;8.38;;
10126;SDS011;13080;42.608;23.362;2023-02-28T07:30:19;20.63;;;9.32;;
10126;SDS011;13080;42.608;23.362;2023-02-28T07:32:46;18.95;;;9.32;;
10126;SDS011;13080;42.608;23.362;2023-02-28T07:35:15;24.45;;;10.50;;
10126;SDS011;13080;42.608;23.362;2023-02-28T07:37:42;24.45;;;13.00;;
10126;SDS011;13080;42.608;23.362;2023-02-28T07:40:09;33.88;;;14.32;;
10126;SDS011;13080;42.608;23.362;2023-02-28T07:42:37;27.08;;;13.40;;
10126;SDS011;13080;42.608;23.362;2023-02-28T07:45:05;27.13;;;12.70;;
10126;SDS011;13080;42.608;23.362;2023-02-28T07:47:33;24.67;;;11.70;;
10126;SDS011;13080;42.608;23.362;2023-02-28T07:50:00;31.45;;;13.43;;
10126;SDS011;13080;42.608;23.362;2023-02-28T07:52:28;30.63;;;14.20;;
10126;SDS011;13080;42.608;23.362;2023-02-28T07:54:54;31.08;;;14.73;;
10126;SDS011;13080;42.608;23.362;2023-02-28T07:57:21;27.80;;;12.27;;
10126;SDS011;13080;42.608;23.362;2023-02-28T07:59:48;29.00;;;14.43;;
10126;SDS011;13080;42.608;23.362;2023-02-28T08:02:16;31.38;;;12.70;;
10126;SDS011;13080;42.608;23.362;2023-02-28T08:04:44;31.58;;;13.50;;
10126;SDS011;13080;42.608;23.362;2023-02-28T08:07:12;36.05;;;14.40;;
10126;SDS011;13080;42.608;23.362;2023-02-28T08:09:40;28.77;;;15.02;;
10126;SDS011;13080;42.608;23.362;2023-02-28T08:12:07;20.90;;;10.48;;
10126;SDS011;13080;42.608;23.362;2023-02-28T08:14:34;18.67;;;8.77;;
10126;SDS011;13080;42.608;23.362;2023-02-28T08:17:01;24.30;;;8.20;;
10126;SDS011;13080;42.608;23.362;2023-02-28T08:19:28;14.00;;;7.55;;
10126;SDS011;13080;42.608;23.362;2023-02-28T08:21:55;26.45;;;8.13;;
10126;SDS011;13080;42.608;23.362;2023-02-28T08:24:22;20.70;;;10.43;;
10126;SDS011;13080;42.608;23.362;2023-02-28T08:26:50;18.10;;;8.02;;
10126;SDS011;13080;42.608;23.362;2023-02-28T08:29:17;23.30;;;8.45;;
10126;SDS011;13080;42.608;23.362;2023-02-28T08:31:43;25.58;;;9.52;;
10126;SDS011;13080;42.608;23.362;2023-02-28T08:34:11;20.85;;;8.82;;
10126;SDS011;13080;42.608;23.362;2023-02-28T08:36:39;19.70;;;8.57;;
10126;SDS011;13080;42.608;23.362;2023-02-28T08:39:07;21.20;;;7.47;;
10126;SDS011;13080;42.608;23.362;2023-02-28T08:41:35;16.98;;;7.57;;
10126;SDS011;13080;42.608;23.362;2023-02-28T08:44:03;22.85;;;8.45;;
10126;SDS011;13080;42.608;23.362;2023-02-28T08:46:30;18.67;;;7.80;;
10126;SDS011;13080;42.608;23.362;2023-02-28T08:48:57;20.23;;;7.78;;
10126;SDS011;13080;42.608;23.362;2023-02-28T08:51:26;15.93;;;6.85;;
10126;SDS011;13080;42.608;23.362;2023-02-28T08:53:54;18.15;;;6.88;;
10126;SDS011;13080;42.608;23.362;2023-02-28T08:56:22;17.35;;;7.38;;
10126;SDS011;13080;42.608;23.362;2023-02-28T08:58:49;14.60;;;7.28;;
10126;SDS011;13080;42.608;23.362;2023-02-28T09:01:18;18.10;;;7.22;;
10126;SDS011;13080;42.608;23.362;2023-02-28T09:03:46;14.70;;;6.55;;
10126;SDS011;13080;42.608;23.362;2023-02-28T09:06:15;20.10;;;6.93;;
10126;SDS011;13080;42.608;23.362;2023-02-28T09:08:42;19.80;;;7.10;;
10126;SDS011;13080;42.608;23.362;2023-02-28T09:11:10;20.40;;;8.00;;
10126;SDS011;13080;42.608;23.362;2023-02-28T09:13:37;16.90;;;7.63;;
10126;SDS011;13080;42.608;23.362;2023-02-28T09:16:05;17.98;;;7.35;;
10126;SDS011;13080;42.608;23.362;2023-02-28T09:18:35;22.83;;;7.85;;
10126;SDS011;13080;42.608;23.362;2023-02-28T09:21:02;20.20;;;10.10;;
10126;SDS011;13080;42.608;23.362;2023-02-28T09:23:30;20.77;;;7.68;;
10126;SDS011;13080;42.608;23.362;2023-02-28T09:25:57;17.92;;;7.28;;
10126;SDS011;13080;42.608;23.362;2023-02-28T09:28:23;21.67;;;7.57;;
10126;SDS011;13080;42.608;23.362;2023-02-28T09:30:51;17.80;;;6.90;;
10126;SDS011;13080;42.608;23.362;2023-02-28T09:33:19;19.88;;;7.03;;
10126;SDS011;13080;42.608;23.362;2023-02-28T09:35:48;13.30;;;6.65;;
10126;SDS011;13080;42.608;23.362;2023-02-28T09:38:16;18.15;;;6.38;;
10126;SDS011;13080;42.608;23.362;2023-02-28T09:40:46;13.43;;;6.70;;
10126;SDS011;13080;42.608;23.362;2023-02-28T09:43:16;17.13;;;7.40;;
10126;SDS011;13080;42.608;23.362;2023-02-28T09:45:47;17.08;;;6.95;;
10126;SDS011;13080;42.608;23.362;2023-02-28T09:48:24;15.43;;;6.15;;
10126;SDS011;13080;42.608;23.362;2023-02-28T09:50:59;23.35;;;7.90;;
10126;SDS011;13080;42.608;23.362;2023-02-28T09:53:29;13.88;;;6.65;;
10126;SDS011;13080;42.608;23.362;2023-02-28T09:56:00;26.60;;;7.13;;
10126;SDS011;13080;42.608;23.362;2023-02-28T09:58:33;24.20;;;8.05;;
10126;SDS011;13080;42.608;23.362;2023-02-28T10:01:07;20.52;;;6.40;;
10126;SDS011;13080;42.608;23.362;2023-02-28T10:03:52;13.98;;;6.18;;
10126;SDS011;13080;42.608;23.362;2023-02-28T10:06:25;22.60;;;5.80;;
10126;SDS011;13080;42.608;23.362;2023-02-28T10:08:58;20.58;;;6.78;;
10126;SDS011;13080;42.608;23.362;2023-02-28T10:11:27;13.40;;;6.10;;
10126;SDS011;13080;42.608;23.362;2023-02-28T10:13:57;12.63;;;6.53;;
10126;SDS011;13080;42.608;23.362;2023-02-28T10:16:31;15.93;;;6.68;;
10126;SDS011;13080;42.608;23.362;2023-02-28T10:19:02;19.80;;;7.07;;
10126;SDS011;13080;42.608;23.362;2023-02-28T10:21:34;17.35;;;6.18;;
10126;SDS011;13080;42.608;23.362;2023-02-28T10:24:04;21.52;;;6.93;;
10126;SDS011;13080;42.608;23.362;2023-02-28T10:26:38;14.55;;;6.35;;
10126;SDS011;13080;42.608;23.362;2023-02-28T10:29:10;17.27;;;6.82;;
10126;SDS011;13080;42.608;23.362;2023-02-28T10:31:37;16.95;;;6.00;;
10126;SDS011;13080;42.608;23.362;2023-02-28T10:34:05;18.17;;;6.47;;
10126;SDS011;13080;42.608;23.362;2023-02-28T10:36:33;16.30;;;6.13;;
10126;SDS011;13080;42.608;23.362;2023-02-28T10:39:00;17.63;;;6.03;;
10126;SDS011;13080;42.608;23.362;2023-02-28T10:41:27;17.85;;;5.95;;
10126;SDS011;13080;42.608;23.362;2023-02-28T10:44:13;19.50;;;7.22;;
10126;SDS011;13080;42.608;23.362;2023-02-28T10:46:43;15.65;;;7.13;;
10126;SDS011;13080;42.608;23.362;2023-02-28T10:49:15;14.70;;;5.95;;
10126;SDS011;13080;42.608;23.362;2023-02-28T10:51:47;18.08;;;6.80;;
10126;SDS011;13080;42.608;23.362;2023-02-28T10:54:18;26.90;;;6.72;;
10126;SDS011;13080;42.608;23.362;2023-02-28T10:56:59;23.95;;;8.18;;
10126;SDS011;13080;42.608;23.362;2023-02-28T10:59:33;18.60;;;6.47;;
10126;SDS011;13080;42.608;23.362;2023-02-28T11:02:00;18.10;;;7.47;;
10126;SDS011;13080;42.608;23.362;2023-02-28T11:04:34;15.77;;;6.10;;
10126;SDS011;13080;42.608;23.362;2023-02-28T11:07:06;17.90;;;6.15;;
10126;SDS011;13080;42.608;23.362;2023-02-28T11:09:44;17.63;;;6.90;;
10126;SDS011;13080;42.608;23.362;2023-02-28T11:12:19;14.63;;;6.53;;
10126;SDS011;13080;42.608;23.362;2023-02-28T11:14:49;16.05;;;6.43;;
10126;SDS011;13080;42.608;23.362;2023-02-28T11:17:19;15.48;;;6.82;;
10126;SDS011;13080;42.608;23.362;2023-02-28T11:19:49;15.20;;;7.68;;
10126;SDS011;13080;42.608;23.362;2023-02-28T11:22:20;20.88;;;7.25;;
10126;SDS011;13080;42.608;23.362;2023-02-28T11:24:52;16.85;;;6.75;;
10126;SDS011;13080;42.608;23.362;2023-02-28T11:27:40;18.42;;;7.00;;
10126;SDS011;13080;42.608;23.362;2023-02-28T11:32:58;20.23;;;7.13;;
10126;SDS011;13080;42.608;23.362;2023-02-28T11:35:27;19.33;;;8.05;;
10126;SDS011;13080;42.608;23.362;2023-02-28T11:37:58;21.40;;;7.85;;
10126;SDS011;13080;42.608;23.362;2023-02-28T11:40:28;18.67;;;7.03;;
10126;SDS011;13080;42.608;23.362;2023-02-28T11:43:02;15.02;;;7.63;;
10126;SDS011;13080;42.608;23.362;2023-02-28T11:45:46;14.57;;;6.90;;
10126;SDS011;13080;42.608;23.362;2023-02-28T11:48:26;20.58;;;7.68;;
10126;SDS011;13080;42.608;23.362;2023-02-28T11:51:02;16.63;;;7.05;;
10126;SDS011;13080;42.608;23.362;2023-02-28T11:53:48;15.18;;;7.25;;
10126;SDS011;13080;42.608;23.362;2023-02-28T11:56:25;20.58;;;7.25;;
10126;SDS011;13080;42.608;23.362;2023-02-28T11:59:04;16.50;;;7.18;;
10126;SDS011;13080;42.608;23.362;2023-02-28T12:01:56;19.20;;;7.50;;
10126;SDS011;13080;42.608;23.362;2023-02-28T12:04:33;18.88;;;7.70;;
10126;SDS011;13080;42.608;23.362;2023-02-28T12:07:09;19.77;;;7.88;;
10126;SDS011;13080;42.608;23.362;2023-02-28T12:09:49;20.48;;;8.70;;
10126;SDS011;13080;42.608;23.362;2023-02-28T12:12:26;21.02;;;8.80;;
10126;SDS011;13080;42.608;23.362;2023-02-28T12:15:17;19.90;;;7.75;;
10126;SDS011;13080;42.608;23.362;2023-02-28T12:18:07;17.63;;;8.40;;
10126;SDS011;13080;42.608;23.362;2023-02-28T12:20:46;21.95;;;8.77;;
10126;SDS011;13080;42.608;23.362;2023-02-28T12:23:27;18.88;;;8.45;;
10126;SDS011;13080;42.608;23.362;2023-02-28T12:26:11;19.67;;;8.45;;
10126;SDS011;13080;42.608;23.362;2023-02-28T12:28:49;20.50;;;7.72;;
10126;SDS011;13080;42.608;23.362;2023-02-28T12:31:20;18.67;;;7.93;;
10126;SDS011;13080;42.608;23.362;2023-02-28T12:33:50;19.27;;;7.65;;
10126;SDS011;13080;42.608;23.362;2023-02-28T12:36:19;24.00;;;9.00;;
10126;SDS011;13080;42.608;23.362;2023-02-28T12:38:50;18.35;;;8.73;;
10126;SDS011;13080;42.608;23.362;2023-02-28T12:41:22;17.60;;;7.47;;
10126;SDS011;13080;42.608;23.362;2023-02-28T12:43:55;18.67;;;8.13;;
10126;SDS011;13080;42.608;23.362;2023-02-28T12:46:28;17.95;;;8.13;;
10126;SDS011;13080;42.608;23.362;2023-02-28T12:49:00;16.20;;;8.10;;
10126;SDS011;13080;42.608;23.362;2023-02-28T12:51:32;19.50;;;8.20;;
10126;SDS011;13080;42.608;23.362;2023-02-28T12:54:04;19.52;;;8.50;;
10126;SDS011;13080;42.608;23.362;2023-02-28T12:56:43;17.85;;;7.78;;
10126;SDS011;13080;42.608;23.362;2023-02-28T12:59:15;18.35;;;7.53;;
10126;SDS011;13080;42.608;23.362;2023-02-28T13:01:56;22.35;;;7.80;;
10126;SDS011;13080;42.608;23.362;2023-02-28T13:04:46;25.40;;;8.57;;
10126;SDS011;13080;42.608;23.362;2023-02-28T13:10:40;16.58;;;7.25;;
10126;SDS011;13080;42.608;23.362;2023-02-28T13:13:15;20.35;;;8.02;;
10126;SDS011;13080;42.608;23.362;2023-02-28T13:15:56;19.13;;;8.35;;
10126;SDS011;13080;42.608;23.362;2023-02-28T13:18:32;16.98;;;8.05;;
10126;SDS011;13080;42.608;23.362;2023-02-28T13:21:02;19.67;;;8.10;;
10126;SDS011;13080;42.608;23.362;2023-02-28T13:23:56;19.75;;;8.02;;
10126;SDS011;13080;42.608;23.362;2023-02-28T13:29:31;17.67;;;7.15;;
10126;SDS011;13080;42.608;23.362;2023-02-28T13:35:14;19.02;;;8.25;;
10126;SDS011;13080;42.608;23.362;2023-02-28T13:38:12;18.88;;;7.47;;
10126;SDS011;13080;42.608;23.362;2023-02-28T13:40:43;17.13;;;7.28;;
10126;SDS011;13080;42.608;23.362;2023-02-28T13:43:10;15.70;;;6.22;;
10126;SDS011;13080;42.608;23.362;2023-02-28T13:45:38;15.85;;;7.82;;
10126;SDS011;13080;42.608;23.362;2023-02-28T13:48:26;16.02;;;7.22;;
10126;SDS011;13080;42.608;23.362;2023-02-28T13:50:55;15.75;;;6.82;;
10126;SDS011;13080;42.608;23.362;2023-02-28T13:53:34;15.20;;;6.68;;
10126;SDS011;13080;42.608;23.362;2023-02-28T13:56:19;19.80;;;6.90;;
10126;SDS011;13080;42.608;23.362;2023-02-28T13:58:57;18.05;;;7.90;;
10126;SDS011;13080;42.608;23.362;2023-02-28T14:01:44;18.67;;;8.27;;
10126;SDS011;13080;42.608;23.362;2023-02-28T14:04:44;20.38;;;7.72;;
10126;SDS011;13080;42.608;23.362;2023-02-28T14:07:16;16.98;;;7.35;;
10126;SDS011;13080;42.608;23.362;2023-02-28T14:09:46;22.30;;;7.32;;
10126;SDS011;13080;42.608;23.362;2023-02-28T14:15:48;17.67;;;7.25;;
10126;SDS011;13080;42.608;23.362;2023-02-28T14:18:27;15.13;;;6.88;;
10126;SDS011;13080;42.608;23.362;2023-02-28T14:23:45;17.45;;;7.05;;
10126;SDS011;13080;42.608;23.362;2023-02-28T14:26:33;15.38;;;7.07;;
10126;SDS011;13080;42.608;23.362;2023-02-28T14:29:23;12.85;;;6.53;;
10126;SDS011;13080;42.608;23.362;2023-02-28T14:32:05;11.07;;;5.82;;
10126;SDS011;13080;42.608;23.362;2023-02-28T14:34:44;11.70;;;6.13;;
10126;SDS011;13080;42.608;23.362;2023-02-28T14:37:19;16.25;;;7.72;;
10126;SDS011;13080;42.608;23.362;2023-02-28T14:39:50;16.15;;;7.03;;
10126;SDS011;13080;42.608;23.362;2023-02-28T14:42:27;21.38;;;7.75;;
10126;SDS011;13080;42.608;23.362;2023-02-28T14:44:55;16.42;;;6.63;;
10126;SDS011;13080;42.608;23.362;2023-02-28T14:47:22;15.30;;;6.22;;
10126;SDS011;13080;42.608;23.362;2023-02-28T14:49:53;12.35;;;5.95;;
10126;SDS011;13080;42.608;23.362;2023-02-28T14:52:21;16.88;;;6.90;;
10126;SDS011;13080;42.608;23.362;2023-02-28T14:54:51;17.42;;;6.93;;
10126;SDS011;13080;42.608;23.362;2023-02-28T14:57:23;17.27;;;7.53;;
10126;SDS011;13080;42.608;23.362;2023-02-28T14:59:59;14.00;;;6.35;;
10126;SDS011;13080;42.608;23.362;2023-02-28T15:02:29;16.02;;;7.28;;
10126;SDS011;13080;42.608;23.362;2023-02-28T15:08:04;15.88;;;5.20;;